createdAt,value
2019-01-31T00:00:39.852Z,82.60
2019-01-31T00:01:39.841Z,82.39
2019-01-31T00:02:39.833Z,82.67
2019-01-31T00:03:39.849Z,82.46
2019-01-31T00:04:39.817Z,82.14
2019-01-31T00:05:39.794Z,82.35
2019-01-31T00:06:39.784Z,82.39
2019-01-31T00:07:39.783Z,82.70
2019-01-31T00:08:46.132Z,82.07
2019-01-31T00:09:40.751Z,82.70
2019-01-31T00:10:39.752Z,82.07
2019-01-31T00:11:39.758Z,82.60
2019-01-31T00:12:39.722Z,82.60
2019-01-31T00:13:39.770Z,82.70
2019-01-31T00:14:39.709Z,82.70
2019-01-31T00:15:39.688Z,82.81
2019-01-31T00:16:39.678Z,82.29
2019-01-31T00:17:39.670Z,82.39
2019-01-31T00:18:39.699Z,82.29
2019-01-31T00:19:39.649Z,82.39
2019-01-31T00:20:39.632Z,82.18
2019-01-31T00:21:39.621Z,81.97
2019-01-31T00:22:39.611Z,82.29
2019-01-31T00:23:39.601Z,82.81
2019-01-31T00:24:39.608Z,81.87
2019-01-31T00:25:39.592Z,82.29
2019-01-31T00:26:39.564Z,82.29
2019-01-31T00:27:39.556Z,81.97
2019-01-31T00:28:39.549Z,82.29
2019-01-31T00:29:39.563Z,82.29
2019-01-31T00:30:39.524Z,82.39
2019-01-31T00:31:39.528Z,82.07
2019-01-31T00:32:39.500Z,82.18
2019-01-31T00:33:39.489Z,82.60
2019-01-31T00:34:39.497Z,81.87
2019-01-31T00:35:39.489Z,82.50
2019-01-31T00:36:39.462Z,82.60
2019-01-31T00:37:39.448Z,81.87
2019-01-31T00:38:39.436Z,82.39
2019-01-31T00:39:39.446Z,81.97
2019-01-31T00:40:39.420Z,82.12
2019-01-31T00:41:39.414Z,82.39
2019-01-31T00:42:39.391Z,81.97
2019-01-31T00:43:39.381Z,81.76
2019-01-31T00:44:39.409Z,82.50
2019-01-31T00:45:39.375Z,82.39
2019-01-31T00:46:39.366Z,82.07
2019-01-31T00:47:39.362Z,82.60
2019-01-31T00:48:39.327Z,82.91
2019-01-31T00:49:39.333Z,82.32
2019-01-31T00:50:39.307Z,82.07
2019-01-31T00:51:39.302Z,82.01
2019-01-31T00:52:39.294Z,83.06
2019-01-31T00:53:39.278Z,83.37
2019-01-31T00:54:39.282Z,83.12
2019-01-31T00:55:39.259Z,83.44
2019-01-31T00:56:39.241Z,82.91
2019-01-31T00:57:39.227Z,82.60
2019-01-31T00:58:39.227Z,82.01
2019-01-31T00:59:39.238Z,81.76
2019-01-31T01:00:39.200Z,81.45
2019-01-31T01:01:39.191Z,81.24
2019-01-31T01:02:39.174Z,81.24
2019-01-31T01:03:39.167Z,81.24
2019-01-31T01:04:39.165Z,81.13
2019-01-31T01:05:39.156Z,81.03
2019-01-31T01:06:39.131Z,81.24
2019-01-31T01:07:39.124Z,81.56
2019-01-31T01:08:39.113Z,81.03
2019-01-31T01:09:39.098Z,81.28
2019-01-31T01:10:39.102Z,81.24
2019-01-31T01:11:39.080Z,81.35
2019-01-31T01:12:39.066Z,81.35
2019-01-31T01:13:39.054Z,81.70
2019-01-31T01:14:39.048Z,81.59
2019-01-31T01:15:39.052Z,81.56
2019-01-31T01:16:39.022Z,80.62
2019-01-31T01:17:39.015Z,80.72
2019-01-31T01:18:39.002Z,79.78
2019-01-31T01:19:39.001Z,78.63
2019-01-31T01:20:38.994Z,79.05
2019-01-31T01:21:38.972Z,78.94
2019-01-31T01:22:38.959Z,78.42
2019-01-31T01:23:38.968Z,78.21
2019-01-31T01:24:38.939Z,77.90
2019-01-31T01:25:38.939Z,78.32
2019-01-31T01:26:38.919Z,78.11
2019-01-31T01:27:38.910Z,77.48
2019-01-31T01:28:38.892Z,77.69
2019-01-31T01:29:38.887Z,77.38
2019-01-31T01:30:38.882Z,78.21
2019-01-31T01:31:38.860Z,77.90
2019-01-31T01:32:38.852Z,78.00
2019-01-31T01:33:38.840Z,77.06
2019-01-31T01:34:38.829Z,77.27
2019-01-31T01:35:38.827Z,78.21
2019-01-31T01:36:38.810Z,77.90
2019-01-31T01:37:38.798Z,78.00
2019-01-31T01:38:38.801Z,78.00
2019-01-31T01:39:38.810Z,77.80
2019-01-31T01:40:38.787Z,77.48
2019-01-31T01:41:38.786Z,77.80
2019-01-31T01:42:38.742Z,77.69
2019-01-31T01:43:38.820Z,78.32
2019-01-31T01:44:38.731Z,78.21
2019-01-31T01:45:38.732Z,77.69
2019-01-31T01:46:38.699Z,77.48
2019-01-31T01:47:38.697Z,77.38
2019-01-31T01:48:38.681Z,77.59
2019-01-31T01:49:38.666Z,78.00
2019-01-31T01:50:38.667Z,76.65
2019-01-31T01:51:38.643Z,76.79
2019-01-31T01:52:38.637Z,77.62
2019-01-31T01:53:38.634Z,77.51
2019-01-31T01:54:38.634Z,77.51
2019-01-31T01:55:38.642Z,77.41
2019-01-31T01:56:38.596Z,77.73
2019-01-31T01:57:38.579Z,77.76
2019-01-31T01:58:38.576Z,77.87
2019-01-31T01:59:38.575Z,77.97
2019-01-31T02:00:38.559Z,77.83
2019-01-31T02:01:38.573Z,78.56
2019-01-31T02:02:38.545Z,77.83
2019-01-31T02:03:38.516Z,77.31
2019-01-31T02:04:38.504Z,77.62
2019-01-31T02:05:38.515Z,77.31
2019-01-31T02:06:38.506Z,77.62
2019-01-31T02:07:38.483Z,77.41
2019-01-31T02:08:38.463Z,77.10
2019-01-31T02:09:38.452Z,77.10
2019-01-31T02:10:38.448Z,76.68
2019-01-31T02:11:38.446Z,76.89
2019-01-31T02:12:38.422Z,77.31
2019-01-31T02:13:38.409Z,76.89
2019-01-31T02:14:38.415Z,77.31
2019-01-31T02:15:38.396Z,77.10
2019-01-31T02:16:38.387Z,76.57
2019-01-31T02:17:38.372Z,76.16
2019-01-31T02:18:38.377Z,76.57
2019-01-31T02:19:38.361Z,76.47
2019-01-31T02:20:38.335Z,76.68
2019-01-31T02:21:38.339Z,76.47
2019-01-31T02:22:38.309Z,76.65
2019-01-31T02:23:38.316Z,76.33
2019-01-31T02:24:38.294Z,76.75
2019-01-31T02:25:38.286Z,76.02
2019-01-31T02:26:38.291Z,76.75
2019-01-31T02:27:38.255Z,76.26
2019-01-31T02:28:38.257Z,76.75
2019-01-31T02:29:38.236Z,76.75
2019-01-31T02:30:38.232Z,76.44
2019-01-31T02:31:38.238Z,76.89
2019-01-31T02:32:38.204Z,76.47
2019-01-31T02:33:38.190Z,76.65
2019-01-31T02:34:38.184Z,76.33
2019-01-31T02:35:38.180Z,76.44
2019-01-31T02:36:38.191Z,76.44
2019-01-31T02:37:38.148Z,76.33
2019-01-31T02:38:38.136Z,76.44
2019-01-31T02:39:43.271Z,76.86
2019-01-31T02:40:39.119Z,76.65
2019-01-31T02:41:38.132Z,76.54
2019-01-31T02:42:38.122Z,76.54
2019-01-31T02:43:38.082Z,76.44
2019-01-31T02:44:38.108Z,76.33
2019-01-31T02:45:38.059Z,76.54
2019-01-31T02:46:38.056Z,76.75
2019-01-31T02:47:38.058Z,76.54
2019-01-31T02:48:38.038Z,76.33
2019-01-31T02:49:38.033Z,76.54
2019-01-31T02:50:38.007Z,76.54
2019-01-31T02:51:37.997Z,76.44
2019-01-31T02:52:37.997Z,76.44
2019-01-31T02:53:37.980Z,76.54
2019-01-31T02:54:37.976Z,76.44
2019-01-31T02:55:37.952Z,76.54
2019-01-31T02:56:37.942Z,76.23
2019-01-31T02:57:37.951Z,76.33
2019-01-31T02:58:37.922Z,76.33
2019-01-31T02:59:37.931Z,76.23
2019-01-31T03:00:37.928Z,76.33
2019-01-31T03:01:37.889Z,76.33
2019-01-31T03:02:37.893Z,76.33
2019-01-31T03:03:37.872Z,76.23
2019-01-31T03:04:37.862Z,76.44
2019-01-31T03:05:37.854Z,76.54
2019-01-31T03:06:37.840Z,76.75
2019-01-31T03:07:37.836Z,76.33
2019-01-31T03:08:37.821Z,76.02
2019-01-31T03:09:37.801Z,76.96
2019-01-31T03:10:39.448Z,76.33
2019-01-31T03:11:37.817Z,76.96
2019-01-31T03:12:37.791Z,76.33
2019-01-31T03:13:37.763Z,76.54
2019-01-31T03:14:37.746Z,76.65
2019-01-31T03:15:37.752Z,76.65
2019-01-31T03:16:37.731Z,76.65
2019-01-31T03:17:37.751Z,76.33
2019-01-31T03:18:37.705Z,76.12
2019-01-31T03:19:37.694Z,76.12
2019-01-31T03:20:37.682Z,76.33
2019-01-31T03:21:37.674Z,77.17
2019-01-31T03:22:37.672Z,77.03
2019-01-31T03:23:37.658Z,76.44
2019-01-31T03:24:37.639Z,77.27
2019-01-31T03:25:37.631Z,77.06
2019-01-31T03:26:37.614Z,77.27
2019-01-31T03:27:37.615Z,77.17
2019-01-31T03:28:37.603Z,77.24
2019-01-31T03:29:37.594Z,77.38
2019-01-31T03:30:37.577Z,77.38
2019-01-31T03:31:37.582Z,76.44
2019-01-31T03:32:37.573Z,77.48
2019-01-31T03:33:37.559Z,77.17
2019-01-31T03:34:37.539Z,76.96
2019-01-31T03:35:37.530Z,77.17
2019-01-31T03:36:37.513Z,77.27
2019-01-31T03:37:37.524Z,76.96
2019-01-31T03:38:37.489Z,77.06
2019-01-31T03:39:37.481Z,77.27
2019-01-31T03:40:37.480Z,77.17
2019-01-31T03:41:37.463Z,77.38
2019-01-31T03:42:37.449Z,77.06
2019-01-31T03:43:37.450Z,77.38
2019-01-31T03:44:37.431Z,77.27
2019-01-31T03:45:37.427Z,77.06
2019-01-31T03:46:37.407Z,76.44
2019-01-31T03:47:37.411Z,76.65
2019-01-31T03:48:37.447Z,77.17
2019-01-31T03:49:37.376Z,77.27
2019-01-31T03:50:37.358Z,77.27
2019-01-31T03:51:37.362Z,77.27
2019-01-31T03:52:37.342Z,77.38
2019-01-31T03:53:37.345Z,77.27
2019-01-31T03:54:37.316Z,76.86
2019-01-31T03:55:37.302Z,76.96
2019-01-31T03:56:37.302Z,76.96
2019-01-31T03:57:37.279Z,77.06
2019-01-31T03:58:37.315Z,76.54
2019-01-31T03:59:37.257Z,77.27
2019-01-31T04:00:37.245Z,76.96
2019-01-31T04:01:37.253Z,77.27
2019-01-31T04:02:37.248Z,77.48
2019-01-31T04:03:37.219Z,77.48
2019-01-31T04:04:37.222Z,78.21
2019-01-31T04:05:37.196Z,77.06
2019-01-31T04:06:37.185Z,77.59
2019-01-31T04:07:37.174Z,77.38
2019-01-31T04:08:37.175Z,77.38
2019-01-31T04:09:37.159Z,77.73
2019-01-31T04:10:37.144Z,76.89
2019-01-31T04:11:37.143Z,77.31
2019-01-31T04:12:37.147Z,77.41
2019-01-31T04:13:37.132Z,77.51
2019-01-31T04:14:37.134Z,77.20
2019-01-31T04:15:37.085Z,76.65
2019-01-31T04:16:37.075Z,76.02
2019-01-31T04:17:37.065Z,76.44
2019-01-31T04:18:37.054Z,76.68
2019-01-31T04:19:37.052Z,76.89
2019-01-31T04:20:37.029Z,76.75
2019-01-31T04:21:37.020Z,76.44
2019-01-31T04:22:37.015Z,76.33
2019-01-31T04:23:37.005Z,76.06
2019-01-31T04:24:37.006Z,75.92
2019-01-31T04:25:36.982Z,75.71
2019-01-31T04:26:36.968Z,75.71
2019-01-31T04:27:36.970Z,75.32
2019-01-31T04:28:36.941Z,75.29
2019-01-31T04:29:36.945Z,75.29
2019-01-31T04:30:36.924Z,75.29
2019-01-31T04:31:36.909Z,75.29
2019-01-31T04:32:36.901Z,75.01
2019-01-31T04:33:36.894Z,74.98
2019-01-31T04:34:36.889Z,74.66
2019-01-31T04:35:36.880Z,74.38
2019-01-31T04:36:36.855Z,74.45
2019-01-31T04:37:36.894Z,74.91
2019-01-31T04:38:36.837Z,74.35
2019-01-31T04:39:36.890Z,74.07
2019-01-31T04:40:36.820Z,74.04
2019-01-31T04:41:36.807Z,74.28
2019-01-31T04:42:36.805Z,74.14
2019-01-31T04:43:36.780Z,74.28
2019-01-31T04:44:36.768Z,74.07
2019-01-31T04:45:37.202Z,74.04
2019-01-31T04:46:36.754Z,74.04
2019-01-31T04:47:36.736Z,74.18
2019-01-31T04:48:36.727Z,74.18
2019-01-31T04:49:36.727Z,74.24
2019-01-31T04:50:36.716Z,74.07
2019-01-31T04:51:36.755Z,74.04
2019-01-31T04:52:36.695Z,74.49
2019-01-31T04:53:36.716Z,74.38
2019-01-31T04:54:36.668Z,74.35
2019-01-31T04:55:36.746Z,74.14
2019-01-31T04:56:36.638Z,74.04
2019-01-31T04:57:36.629Z,74.24
2019-01-31T04:58:36.619Z,74.04
2019-01-31T04:59:36.608Z,74.04
2019-01-31T05:00:36.614Z,73.52
2019-01-31T05:01:36.585Z,73.52
2019-01-31T05:02:36.581Z,73.52
2019-01-31T05:03:36.567Z,73.52
2019-01-31T05:04:36.567Z,73.83
2019-01-31T05:05:36.616Z,73.41
2019-01-31T05:06:36.530Z,73.72
2019-01-31T05:07:36.522Z,73.52
2019-01-31T05:08:36.528Z,73.62
2019-01-31T05:09:36.508Z,73.41
2019-01-31T05:10:43.270Z,73.20
2019-01-31T05:11:37.475Z,73.20
2019-01-31T05:12:36.467Z,73.10
2019-01-31T05:13:36.454Z,72.99
2019-01-31T05:14:36.460Z,73.38
2019-01-31T05:15:36.464Z,73.62
2019-01-31T05:16:36.426Z,73.62
2019-01-31T05:17:36.413Z,73.41
2019-01-31T05:18:36.402Z,73.41
2019-01-31T05:19:36.394Z,73.07
2019-01-31T05:20:36.381Z,72.96
2019-01-31T05:21:36.383Z,73.27
2019-01-31T05:22:36.358Z,73.38
2019-01-31T05:23:36.348Z,73.38
2019-01-31T05:24:36.339Z,73.38
2019-01-31T05:25:36.325Z,72.96
2019-01-31T05:26:36.331Z,72.85
2019-01-31T05:27:36.304Z,72.89
2019-01-31T05:28:36.304Z,72.23
2019-01-31T05:29:36.294Z,72.89
2019-01-31T05:30:36.271Z,72.85
2019-01-31T05:31:36.273Z,72.33
2019-01-31T05:32:36.250Z,72.54
2019-01-31T05:33:36.239Z,72.23
2019-01-31T05:34:36.351Z,72.44
2019-01-31T05:35:36.222Z,72.23
2019-01-31T05:36:36.227Z,72.13
2019-01-31T05:37:36.200Z,72.19
2019-01-31T05:38:36.189Z,71.67
2019-01-31T05:39:36.175Z,71.98
2019-01-31T05:40:36.163Z,71.26
2019-01-31T05:41:36.153Z,71.47
2019-01-31T05:42:36.319Z,70.94
2019-01-31T05:43:36.129Z,70.94
2019-01-31T05:44:36.128Z,70.94
2019-01-31T05:45:36.109Z,71.15
2019-01-31T05:46:36.098Z,71.15
2019-01-31T05:47:36.105Z,70.21
2019-01-31T05:48:36.075Z,70.32
2019-01-31T05:49:36.065Z,70.91
2019-01-31T05:50:36.070Z,71.04
2019-01-31T05:51:36.046Z,71.33
2019-01-31T05:52:36.043Z,71.22
2019-01-31T05:53:36.094Z,71.01
2019-01-31T05:54:36.015Z,70.63
2019-01-31T05:55:36.018Z,71.47
2019-01-31T05:56:35.989Z,71.01
2019-01-31T05:57:35.997Z,70.84
2019-01-31T05:58:35.976Z,70.84
2019-01-31T05:59:35.964Z,70.91
2019-01-31T06:00:35.952Z,71.15
2019-01-31T06:01:35.943Z,70.50
2019-01-31T06:02:35.966Z,71.04
2019-01-31T06:03:35.917Z,70.70
2019-01-31T06:04:35.905Z,71.01
2019-01-31T06:05:35.933Z,70.21
2019-01-31T06:06:35.888Z,70.39
2019-01-31T06:07:35.883Z,70.73
2019-01-31T06:08:35.875Z,71.33
2019-01-31T06:09:35.851Z,71.75
2019-01-31T06:10:35.848Z,71.98
2019-01-31T06:11:35.830Z,72.30
2019-01-31T06:12:35.845Z,73.34
2019-01-31T06:13:35.817Z,73.86
2019-01-31T06:14:35.807Z,74.94
2019-01-31T06:15:35.824Z,75.67
2019-01-31T06:16:35.775Z,76.92
2019-01-31T06:17:35.774Z,77.38
2019-01-31T06:18:35.766Z,78.63
2019-01-31T06:19:35.740Z,78.63
2019-01-31T06:20:35.735Z,79.05
2019-01-31T06:21:35.729Z,78.56
2019-01-31T06:22:35.729Z,79.68
2019-01-31T06:23:35.711Z,81.13
2019-01-31T06:24:35.702Z,80.51
2019-01-31T06:25:35.679Z,80.86
2019-01-31T06:26:35.666Z,81.28
2019-01-31T06:27:35.655Z,81.18
2019-01-31T06:28:35.657Z,81.18
2019-01-31T06:29:35.642Z,81.52
2019-01-31T06:30:35.644Z,81.84
2019-01-31T06:31:35.629Z,82.99
2019-01-31T06:32:35.607Z,83.83
2019-01-31T06:33:35.606Z,84.03
2019-01-31T06:34:35.580Z,84.24
2019-01-31T06:35:35.577Z,84.14
2019-01-31T06:36:35.560Z,84.45
2019-01-31T06:37:35.566Z,84.45
2019-01-31T06:38:35.551Z,85.18
2019-01-31T06:39:35.536Z,84.66
2019-01-31T06:40:35.574Z,85.74
2019-01-31T06:41:35.510Z,86.02
2019-01-31T06:42:35.494Z,87.31
2019-01-31T06:43:35.499Z,87.52
2019-01-31T06:44:35.485Z,87.94
2019-01-31T06:45:35.472Z,87.84
2019-01-31T06:46:35.450Z,88.26
2019-01-31T06:47:35.442Z,89.61
2019-01-31T06:48:35.443Z,89.45
2019-01-31T06:49:35.457Z,89.51
2019-01-31T06:50:35.418Z,90.45
2019-01-31T06:51:35.394Z,90.87
2019-01-31T06:52:35.392Z,90.77
2019-01-31T06:53:35.389Z,91.96
2019-01-31T06:54:35.364Z,92.16
2019-01-31T06:55:35.358Z,93.01
2019-01-31T06:56:35.342Z,93.36
2019-01-31T06:57:35.339Z,93.88
2019-01-31T06:58:35.338Z,94.30
2019-01-31T06:59:35.333Z,94.72
2019-01-31T07:00:35.301Z,94.82
2019-01-31T07:01:35.299Z,96.19
2019-01-31T07:02:35.276Z,96.65
2019-01-31T07:03:35.270Z,97.06
2019-01-31T07:04:35.267Z,97.38
2019-01-31T07:05:35.248Z,97.38
2019-01-31T07:06:35.234Z,97.59
2019-01-31T07:07:35.231Z,98.74
2019-01-31T07:08:35.219Z,98.89
2019-01-31T07:09:35.236Z,98.68
2019-01-31T07:10:35.190Z,98.58
2019-01-31T07:11:35.181Z,99.10
2019-01-31T07:12:35.180Z,99.10
2019-01-31T07:13:35.171Z,98.74
2019-01-31T07:14:35.169Z,98.64
2019-01-31T07:15:35.140Z,98.85
2019-01-31T07:16:35.128Z,98.95
2019-01-31T07:17:35.130Z,98.32
2019-01-31T07:18:35.102Z,98.74
2019-01-31T07:19:35.193Z,98.68
2019-01-31T07:20:35.083Z,98.22
2019-01-31T07:21:35.071Z,97.85
2019-01-31T07:22:35.058Z,98.01
2019-01-31T07:23:35.049Z,97.38
2019-01-31T07:24:35.048Z,97.28
2019-01-31T07:25:35.048Z,97.59
2019-01-31T07:26:35.016Z,97.49
2019-01-31T07:27:35.009Z,97.17
2019-01-31T07:28:35.004Z,97.06
2019-01-31T07:29:35.017Z,97.22
2019-01-31T07:30:34.972Z,96.48
2019-01-31T07:31:34.961Z,97.00
2019-01-31T07:32:34.949Z,96.96
2019-01-31T07:33:34.957Z,97.06
2019-01-31T07:34:34.928Z,97.11
2019-01-31T07:35:34.928Z,96.96
2019-01-31T07:36:34.910Z,96.96
2019-01-31T07:37:34.895Z,97.49
2019-01-31T07:38:34.889Z,96.86
2019-01-31T07:39:34.877Z,96.55
2019-01-31T07:40:34.875Z,96.12
2019-01-31T07:41:41.494Z,97.17
2019-01-31T07:42:35.843Z,97.44
2019-01-31T07:43:34.834Z,97.28
2019-01-31T07:44:34.821Z,96.96
2019-01-31T07:45:34.820Z,97.38
2019-01-31T07:46:34.803Z,97.02
2019-01-31T07:47:36.759Z,97.17
2019-01-31T07:48:34.777Z,97.49
2019-01-31T07:49:36.716Z,97.85
2019-01-31T07:50:34.766Z,98.58
2019-01-31T07:51:34.884Z,99.63
2019-01-31T07:52:34.739Z,99.00
2019-01-31T07:53:34.726Z,99.90
2019-01-31T07:54:34.713Z,99.90
2019-01-31T07:55:34.715Z,99.84
2019-01-31T07:56:34.692Z,99.94
2019-01-31T07:57:34.679Z,99.84
2019-01-31T07:58:34.672Z,99.68
2019-01-31T07:59:34.660Z,99.58
2019-01-31T08:00:34.664Z,99.90
2019-01-31T08:01:34.637Z,99.90
2019-01-31T08:02:34.627Z,99.79
2019-01-31T08:03:34.617Z,99.99
2019-01-31T08:04:34.607Z,99.90
2019-01-31T08:05:34.604Z,99.79
2019-01-31T08:06:34.582Z,99.58
2019-01-31T08:07:34.583Z,99.68
2019-01-31T08:08:34.564Z,99.99
2019-01-31T08:09:34.550Z,99.54
2019-01-31T08:10:34.553Z,99.99
2019-01-31T08:11:34.528Z,99.90
2019-01-31T08:12:34.759Z,99.99
2019-01-31T08:13:34.508Z,99.99
2019-01-31T08:14:34.496Z,99.99
2019-01-31T08:15:34.496Z,99.99
2019-01-31T08:16:34.480Z,99.90
2019-01-31T08:17:34.473Z,99.99
2019-01-31T08:18:34.455Z,99.85
2019-01-31T08:19:34.443Z,99.85
2019-01-31T08:20:34.448Z,99.95
2019-01-31T08:21:34.425Z,99.95
2019-01-31T08:22:34.413Z,99.85
2019-01-31T08:23:34.403Z,99.54
2019-01-31T08:24:34.401Z,99.11
2019-01-31T08:25:34.390Z,99.54
2019-01-31T08:26:34.371Z,98.91
2019-01-31T08:27:34.356Z,98.86
2019-01-31T08:28:34.354Z,98.69
2019-01-31T08:29:34.335Z,98.97
2019-01-31T08:30:37.629Z,98.44
2019-01-31T08:31:34.316Z,98.34
2019-01-31T08:32:34.302Z,98.34
2019-01-31T08:33:34.291Z,98.18
2019-01-31T08:34:34.284Z,98.86
2019-01-31T08:35:34.269Z,98.75
2019-01-31T08:36:34.276Z,98.65
2019-01-31T08:37:34.264Z,98.55
2019-01-31T08:38:36.702Z,98.65
2019-01-31T08:39:34.227Z,98.34
2019-01-31T08:40:34.221Z,98.55
2019-01-31T08:41:34.218Z,98.65
2019-01-31T08:42:34.203Z,98.65
2019-01-31T08:43:34.185Z,98.75
2019-01-31T08:44:34.177Z,98.97
2019-01-31T08:45:34.163Z,98.86
2019-01-31T08:46:34.164Z,98.86
2019-01-31T08:47:34.142Z,98.97
2019-01-31T08:48:34.142Z,99.59
2019-01-31T08:49:34.121Z,98.75
2019-01-31T08:50:34.109Z,98.97
2019-01-31T08:51:34.111Z,99.07
2019-01-31T08:52:34.165Z,99.18
2019-01-31T08:53:34.080Z,99.38
2019-01-31T08:54:34.081Z,98.71
2019-01-31T08:55:34.054Z,98.92
2019-01-31T08:56:34.139Z,98.75
2019-01-31T08:57:34.032Z,98.97
2019-01-31T08:58:34.042Z,98.50
2019-01-31T08:59:34.014Z,98.39
2019-01-31T09:00:33.999Z,98.29
2019-01-31T09:01:33.991Z,98.65
2019-01-31T09:02:33.992Z,98.24
2019-01-31T09:03:33.968Z,97.67
2019-01-31T09:04:33.960Z,97.41
2019-01-31T09:05:33.949Z,97.62
2019-01-31T09:06:33.935Z,97.14
2019-01-31T09:07:33.935Z,97.10
2019-01-31T09:08:33.920Z,96.89
2019-01-31T09:09:33.904Z,97.20
2019-01-31T09:10:33.900Z,97.10
2019-01-31T09:11:33.882Z,97.04
2019-01-31T09:12:33.884Z,96.05
2019-01-31T09:13:33.861Z,96.41
2019-01-31T09:14:33.853Z,95.89
2019-01-31T09:15:33.843Z,95.84
2019-01-31T09:16:33.831Z,96.05
2019-01-31T09:17:33.828Z,96.05
2019-01-31T09:18:33.805Z,95.68
2019-01-31T09:19:33.797Z,96.20
2019-01-31T09:20:33.784Z,95.84
2019-01-31T09:21:33.775Z,96.10
2019-01-31T09:22:33.784Z,95.74
2019-01-31T09:23:33.750Z,96.26
2019-01-31T09:24:33.744Z,95.95
2019-01-31T09:25:33.730Z,95.95
2019-01-31T09:26:33.721Z,95.84
2019-01-31T09:27:33.736Z,95.43
2019-01-31T09:28:33.703Z,95.95
2019-01-31T09:29:33.686Z,95.53
2019-01-31T09:30:33.676Z,95.74
2019-01-31T09:31:33.665Z,95.84
2019-01-31T09:32:33.653Z,95.84
2019-01-31T09:33:33.654Z,95.84
2019-01-31T09:34:33.652Z,95.84
2019-01-31T09:35:33.741Z,96.05
2019-01-31T09:36:33.610Z,96.05
2019-01-31T09:37:33.600Z,95.95
2019-01-31T09:38:33.602Z,95.64
2019-01-31T09:39:33.581Z,95.43
2019-01-31T09:40:33.583Z,95.80
2019-01-31T09:41:33.567Z,95.17
2019-01-31T09:42:33.547Z,94.86
2019-01-31T09:43:33.546Z,95.07
2019-01-31T09:44:33.523Z,95.38
2019-01-31T09:45:33.513Z,95.17
2019-01-31T09:46:33.517Z,94.96
2019-01-31T09:47:33.495Z,95.28
2019-01-31T09:48:33.493Z,95.49
2019-01-31T09:49:33.470Z,95.17
2019-01-31T09:50:33.459Z,94.92
2019-01-31T09:51:33.449Z,95.38
2019-01-31T09:52:33.447Z,95.34
2019-01-31T09:53:33.457Z,94.82
2019-01-31T09:54:33.415Z,95.23
2019-01-31T09:55:33.407Z,95.23
2019-01-31T09:56:34.837Z,95.23
2019-01-31T09:57:33.398Z,95.23
2019-01-31T09:58:33.384Z,94.92
2019-01-31T09:59:33.370Z,95.03
2019-01-31T10:00:33.349Z,95.23
2019-01-31T10:01:33.342Z,94.61
2019-01-31T10:02:33.327Z,94.61
2019-01-31T10:03:34.860Z,94.57
2019-01-31T10:04:33.306Z,94.57
2019-01-31T10:05:33.295Z,95.03
2019-01-31T10:06:33.282Z,95.03
2019-01-31T10:07:33.277Z,95.23
2019-01-31T10:08:33.276Z,95.03
2019-01-31T10:09:33.255Z,95.13
2019-01-31T10:10:33.283Z,95.44
2019-01-31T10:11:33.275Z,94.98
2019-01-31T10:12:38.411Z,94.98
2019-01-31T10:13:34.294Z,95.34
2019-01-31T10:14:33.200Z,95.19
2019-01-31T10:15:33.209Z,94.61
2019-01-31T10:16:33.321Z,95.19
2019-01-31T10:17:33.162Z,95.29
2019-01-31T10:18:33.163Z,95.23
2019-01-31T10:19:33.141Z,95.19
2019-01-31T10:20:33.169Z,95.13
2019-01-31T10:21:33.192Z,94.25
2019-01-31T10:22:33.178Z,94.67
2019-01-31T10:23:33.105Z,94.50
2019-01-31T10:24:33.178Z,94.57
2019-01-31T10:25:35.628Z,94.88
2019-01-31T10:26:33.074Z,94.67
2019-01-31T10:27:33.052Z,94.67
2019-01-31T10:28:33.065Z,94.63
2019-01-31T10:29:33.035Z,94.78
2019-01-31T10:30:33.020Z,94.84
2019-01-31T10:31:33.006Z,94.31
2019-01-31T10:32:32.995Z,94.63
2019-01-31T10:33:32.982Z,94.73
2019-01-31T10:34:32.990Z,94.94
2019-01-31T10:35:32.962Z,93.79
2019-01-31T10:36:32.952Z,94.10
2019-01-31T10:37:32.940Z,93.69
2019-01-31T10:38:32.930Z,93.54
2019-01-31T10:39:35.572Z,93.54
2019-01-31T10:40:32.911Z,92.40
2019-01-31T10:41:32.895Z,93.65
2019-01-31T10:42:32.884Z,93.33
2019-01-31T10:43:32.874Z,92.91
2019-01-31T10:44:32.873Z,93.12
2019-01-31T10:45:32.854Z,92.50
2019-01-31T10:46:32.852Z,93.02
2019-01-31T10:47:32.827Z,92.29
2019-01-31T10:48:32.818Z,92.91
2019-01-31T10:49:32.821Z,92.81
2019-01-31T10:50:32.819Z,93.65
2019-01-31T10:51:32.810Z,93.12
2019-01-31T10:52:32.779Z,92.50
2019-01-31T10:53:32.768Z,92.50
2019-01-31T10:54:32.768Z,92.81
2019-01-31T10:55:32.749Z,92.77
2019-01-31T10:56:32.730Z,92.77
2019-01-31T10:57:32.741Z,92.62
2019-01-31T10:58:32.707Z,92.58
2019-01-31T10:59:32.707Z,91.08
2019-01-31T11:00:32.687Z,89.35
2019-01-31T11:01:32.677Z,89.98
2019-01-31T11:02:32.683Z,90.29
2019-01-31T11:03:32.654Z,90.29
2019-01-31T11:04:32.654Z,90.29
2019-01-31T11:05:32.627Z,89.87
2019-01-31T11:06:32.621Z,89.25
2019-01-31T11:07:32.618Z,90.39
2019-01-31T11:08:32.598Z,89.58
2019-01-31T11:09:32.611Z,89.06
2019-01-31T11:10:32.580Z,88.29
2019-01-31T11:11:32.563Z,87.15
2019-01-31T11:12:32.553Z,87.92
2019-01-31T11:13:32.541Z,89.00
2019-01-31T11:14:32.536Z,89.10
2019-01-31T11:15:32.561Z,89.41
2019-01-31T11:16:32.523Z,89.94
2019-01-31T11:17:32.497Z,90.25
2019-01-31T11:18:32.489Z,90.29
2019-01-31T11:19:32.489Z,90.50
2019-01-31T11:20:32.480Z,91.22
2019-01-31T11:21:32.454Z,90.08
2019-01-31T11:22:32.442Z,90.08
2019-01-31T11:23:32.434Z,89.76
2019-01-31T11:24:32.421Z,90.70
2019-01-31T11:25:32.426Z,91.27
2019-01-31T11:26:32.436Z,91.75
2019-01-31T11:27:32.397Z,90.60
2019-01-31T11:28:32.375Z,89.87
2019-01-31T11:29:32.371Z,91.43
2019-01-31T11:30:32.366Z,91.12
2019-01-31T11:31:32.347Z,90.50
2019-01-31T11:32:32.343Z,91.12
2019-01-31T11:33:32.319Z,91.68
2019-01-31T11:34:33.219Z,91.16
2019-01-31T11:35:32.310Z,90.60
2019-01-31T11:36:32.288Z,90.50
2019-01-31T11:37:32.328Z,89.87
2019-01-31T11:38:32.274Z,90.22
2019-01-31T11:39:32.254Z,90.54
2019-01-31T11:40:32.256Z,91.12
2019-01-31T11:41:32.258Z,90.29
2019-01-31T11:42:32.224Z,90.39
2019-01-31T11:43:32.216Z,90.50
2019-01-31T11:44:32.211Z,89.98
2019-01-31T11:45:32.227Z,90.50
2019-01-31T11:46:32.177Z,90.60
2019-01-31T11:47:32.166Z,91.27
2019-01-31T11:48:32.159Z,91.33
2019-01-31T11:49:32.147Z,91.12
2019-01-31T11:50:32.143Z,91.12
2019-01-31T11:51:32.150Z,91.22
2019-01-31T11:52:32.112Z,91.02
2019-01-31T11:53:32.098Z,91.64
2019-01-31T11:54:32.109Z,91.02
2019-01-31T11:55:32.091Z,90.04
2019-01-31T11:56:32.098Z,90.66
2019-01-31T11:57:32.055Z,90.25
2019-01-31T11:58:32.049Z,89.98
2019-01-31T11:59:32.034Z,90.29
2019-01-31T12:00:32.038Z,90.04
2019-01-31T12:01:32.027Z,90.60
2019-01-31T12:02:32.010Z,91.22
2019-01-31T12:03:31.997Z,90.97
2019-01-31T12:04:31.978Z,91.08
2019-01-31T12:05:31.987Z,90.35
2019-01-31T12:06:31.982Z,90.56
2019-01-31T12:07:31.957Z,90.66
2019-01-31T12:08:31.937Z,90.62
2019-01-31T12:09:31.953Z,90.10
2019-01-31T12:10:31.920Z,90.25
2019-01-31T12:11:31.921Z,90.08
2019-01-31T12:12:31.897Z,90.56
2019-01-31T12:13:31.960Z,90.87
2019-01-31T12:14:31.939Z,90.66
2019-01-31T12:15:31.869Z,90.45
2019-01-31T12:16:31.870Z,90.35
2019-01-31T12:17:31.915Z,89.52
2019-01-31T12:18:31.829Z,90.19
2019-01-31T12:19:31.809Z,90.08
2019-01-31T12:20:31.801Z,89.56
2019-01-31T12:21:31.802Z,90.19
2019-01-31T12:22:31.781Z,89.98
2019-01-31T12:23:32.345Z,90.08
2019-01-31T12:24:31.767Z,89.66
2019-01-31T12:25:31.743Z,90.19
2019-01-31T12:26:31.790Z,89.83
2019-01-31T12:27:31.727Z,89.94
2019-01-31T12:28:31.713Z,89.94
2019-01-31T12:29:31.705Z,89.62
2019-01-31T12:30:31.705Z,89.52
2019-01-31T12:31:31.956Z,89.41
2019-01-31T12:32:31.669Z,90.25
2019-01-31T12:33:31.657Z,89.73
2019-01-31T12:34:31.649Z,89.79
2019-01-31T12:35:31.641Z,89.58
2019-01-31T12:36:31.629Z,89.48
2019-01-31T12:37:31.632Z,89.06
2019-01-31T12:38:36.823Z,88.75
2019-01-31T12:39:32.594Z,88.81
2019-01-31T12:40:31.581Z,88.81
2019-01-31T12:41:31.575Z,88.35
2019-01-31T12:42:31.579Z,88.04
2019-01-31T12:43:35.283Z,87.94
2019-01-31T12:44:31.538Z,88.25
2019-01-31T12:45:31.525Z,87.32
2019-01-31T12:46:32.779Z,87.32
2019-01-31T12:47:31.514Z,87.42
2019-01-31T12:48:31.490Z,87.63
2019-01-31T12:49:31.486Z,87.32
2019-01-31T12:50:31.493Z,85.55
2019-01-31T12:51:31.459Z,84.92
2019-01-31T12:52:31.456Z,85.96